sensor_id;sensor_type;location;lat;lon;timestamp;temperature;humidity
5697;DHT22;2873;50.966;7.210;2024-03-25T00:00:59;8.30;99.90
5697;DHT22;2873;50.966;7.210;2024-03-25T00:03:25;8.20;99.90
5697;DHT22;2873;50.966;7.210;2024-03-25T00:05:50;8.30;99.90
5697;DHT22;2873;50.966;7.210;2024-03-25T00:08:16;8.30;99.90
5697;DHT22;2873;50.966;7.210;2024-03-25T00:10:41;8.20;99.90
5697;DHT22;2873;50.966;7.210;2024-03-25T00:13:07;8.20;99.90
5697;DHT22;2873;50.966;7.210;2024-03-25T00:15:32;8.20;99.90
5697;DHT22;2873;50.966;7.210;2024-03-25T00:17:59;8.30;99.90
5697;DHT22;2873;50.966;7.210;2024-03-25T00:20:25;8.20;99.90
5697;DHT22;2873;50.966;7.210;2024-03-25T00:22:50;8.30;99.90
5697;DHT22;2873;50.966;7.210;2024-03-25T00:25:16;8.30;99.90
5697;DHT22;2873;50.966;7.210;2024-03-25T00:27:42;8.20;99.90
5697;DHT22;2873;50.966;7.210;2024-03-25T00:30:08;8.20;99.90
5697;DHT22;2873;50.966;7.210;2024-03-25T00:32:35;8.20;99.90
5697;DHT22;2873;50.966;7.210;2024-03-25T00:35:00;8.30;99.90
5697;DHT22;2873;50.966;7.210;2024-03-25T00:37:26;8.20;99.90
5697;DHT22;2873;50.966;7.210;2024-03-25T00:39:51;8.20;99.90
5697;DHT22;2873;50.966;7.210;2024-03-25T00:42:17;8.30;99.90
5697;DHT22;2873;50.966;7.210;2024-03-25T00:44:42;8.30;99.90
5697;DHT22;2873;50.966;7.210;2024-03-25T00:47:08;8.20;99.90
5697;DHT22;2873;50.966;7.210;2024-03-25T00:49:33;8.20;99.90
5697;DHT22;2873;50.966;7.210;2024-03-25T00:52:00;8.20;99.90
5697;DHT22;2873;50.966;7.210;2024-03-25T00:54:25;8.20;99.90
5697;DHT22;2873;50.966;7.210;2024-03-25T00:56:51;8.20;99.90
5697;DHT22;2873;50.966;7.210;2024-03-25T00:59:17;8.20;99.90
5697;DHT22;2873;50.966;7.210;2024-03-25T01:01:43;8.20;99.90
5697;DHT22;2873;50.966;7.210;2024-03-25T01:04:08;8.20;99.90
5697;DHT22;2873;50.966;7.210;2024-03-25T01:06:34;8.10;99.90
5697;DHT22;2873;50.966;7.210;2024-03-25T01:08:59;8.10;99.90
5697;DHT22;2873;50.966;7.210;2024-03-25T01:11:25;8.10;99.90
5697;DHT22;2873;50.966;7.210;2024-03-25T01:13:50;8.10;99.90
5697;DHT22;2873;50.966;7.210;2024-03-25T01:16:16;8.10;99.90
5697;DHT22;2873;50.966;7.210;2024-03-25T01:18:42;8.10;99.90
5697;DHT22;2873;50.966;7.210;2024-03-25T01:21:07;8.10;99.90
5697;DHT22;2873;50.966;7.210;2024-03-25T01:23:33;8.10;99.90
5697;DHT22;2873;50.966;7.210;2024-03-25T01:25:58;8.10;99.90
5697;DHT22;2873;50.966;7.210;2024-03-25T01:28:24;8.10;99.90
5697;DHT22;2873;50.966;7.210;2024-03-25T01:30:49;8.10;99.90
5697;DHT22;2873;50.966;7.210;2024-03-25T01:33:15;8.10;99.90
5697;DHT22;2873;50.966;7.210;2024-03-25T01:35:41;8.10;99.90
5697;DHT22;2873;50.966;7.210;2024-03-25T01:38:06;8.10;99.90
5697;DHT22;2873;50.966;7.210;2024-03-25T01:40:32;8.10;99.90
5697;DHT22;2873;50.966;7.210;2024-03-25T01:43:01;8.10;99.90
5697;DHT22;2873;50.966;7.210;2024-03-25T01:45:29;8.10;99.90
5697;DHT22;2873;50.966;7.210;2024-03-25T01:47:56;8.10;99.90
5697;DHT22;2873;50.966;7.210;2024-03-25T01:50:22;8.10;99.90
5697;DHT22;2873;50.966;7.210;2024-03-25T01:52:49;8.10;99.90
5697;DHT22;2873;50.966;7.210;2024-03-25T01:55:21;8.00;99.90
5697;DHT22;2873;50.966;7.210;2024-03-25T01:57:48;8.00;99.90
5697;DHT22;2873;50.966;7.210;2024-03-25T02:00:14;8.00;99.90
5697;DHT22;2873;50.966;7.210;2024-03-25T02:02:42;8.00;99.90
5697;DHT22;2873;50.966;7.210;2024-03-25T02:05:10;8.00;99.90
5697;DHT22;2873;50.966;7.210;2024-03-25T02:07:36;8.00;99.90
5697;DHT22;2873;50.966;7.210;2024-03-25T02:10:03;8.10;99.90
5697;DHT22;2873;50.966;7.210;2024-03-25T02:12:30;8.10;99.90
5697;DHT22;2873;50.966;7.210;2024-03-25T02:14:56;8.10;99.90
5697;DHT22;2873;50.966;7.210;2024-03-25T02:17:22;8.10;99.90
5697;DHT22;2873;50.966;7.210;2024-03-25T02:19:47;8.10;99.90
5697;DHT22;2873;50.966;7.210;2024-03-25T02:22:13;8.00;99.90
5697;DHT22;2873;50.966;7.210;2024-03-25T02:24:38;8.10;99.90
5697;DHT22;2873;50.966;7.210;2024-03-25T02:27:05;8.10;99.90
5697;DHT22;2873;50.966;7.210;2024-03-25T02:29:34;8.10;99.90
5697;DHT22;2873;50.966;7.210;2024-03-25T02:31:59;8.10;99.90
5697;DHT22;2873;50.966;7.210;2024-03-25T02:34:25;8.10;99.90
5697;DHT22;2873;50.966;7.210;2024-03-25T02:36:51;8.10;99.90
5697;DHT22;2873;50.966;7.210;2024-03-25T02:39:18;8.10;99.90
5697;DHT22;2873;50.966;7.210;2024-03-25T02:41:44;8.10;99.90
5697;DHT22;2873;50.966;7.210;2024-03-25T02:44:09;8.00;99.90
5697;DHT22;2873;50.966;7.210;2024-03-25T02:46:35;8.00;99.90
5697;DHT22;2873;50.966;7.210;2024-03-25T02:49:01;8.10;99.90
5697;DHT22;2873;50.966;7.210;2024-03-25T02:51:26;8.10;99.90
5697;DHT22;2873;50.966;7.210;2024-03-25T02:53:52;8.10;99.90
5697;DHT22;2873;50.966;7.210;2024-03-25T02:56:17;8.10;99.90
5697;DHT22;2873;50.966;7.210;2024-03-25T02:58:42;8.10;99.90
5697;DHT22;2873;50.966;7.210;2024-03-25T03:01:08;8.00;99.90
5697;DHT22;2873;50.966;7.210;2024-03-25T03:03:33;8.10;99.90
5697;DHT22;2873;50.966;7.210;2024-03-25T03:05:59;8.00;99.90
5697;DHT22;2873;50.966;7.210;2024-03-25T03:08:25;8.10;99.90
5697;DHT22;2873;50.966;7.210;2024-03-25T03:10:50;8.10;99.90
5697;DHT22;2873;50.966;7.210;2024-03-25T03:13:17;8.10;99.90
5697;DHT22;2873;50.966;7.210;2024-03-25T03:15:45;8.10;99.90
5697;DHT22;2873;50.966;7.210;2024-03-25T03:18:11;8.20;99.90
5697;DHT22;2873;50.966;7.210;2024-03-25T03:20:36;8.00;99.90
5697;DHT22;2873;50.966;7.210;2024-03-25T03:23:02;8.00;99.90
5697;DHT22;2873;50.966;7.210;2024-03-25T03:25:27;8.00;99.90
5697;DHT22;2873;50.966;7.210;2024-03-25T03:27:55;8.00;99.90
5697;DHT22;2873;50.966;7.210;2024-03-25T03:30:21;7.90;99.90
5697;DHT22;2873;50.966;7.210;2024-03-25T03:32:46;8.00;99.90
5697;DHT22;2873;50.966;7.210;2024-03-25T03:35:12;8.00;99.90
5697;DHT22;2873;50.966;7.210;2024-03-25T03:37:38;8.10;99.90
5697;DHT22;2873;50.966;7.210;2024-03-25T03:40:03;8.00;99.90
5697;DHT22;2873;50.966;7.210;2024-03-25T03:42:32;8.00;99.90
5697;DHT22;2873;50.966;7.210;2024-03-25T03:44:58;8.10;99.90
5697;DHT22;2873;50.966;7.210;2024-03-25T03:47:23;8.10;99.90
5697;DHT22;2873;50.966;7.210;2024-03-25T03:49:49;8.00;99.90
5697;DHT22;2873;50.966;7.210;2024-03-25T03:52:14;8.00;99.90
5697;DHT22;2873;50.966;7.210;2024-03-25T03:54:40;8.00;99.90
5697;DHT22;2873;50.966;7.210;2024-03-25T03:57:05;8.10;99.90
5697;DHT22;2873;50.966;7.210;2024-03-25T03:59:31;8.10;99.90
5697;DHT22;2873;50.966;7.210;2024-03-25T04:01:57;8.00;99.90
5697;DHT22;2873;50.966;7.210;2024-03-25T04:04:23;8.00;99.90
5697;DHT22;2873;50.966;7.210;2024-03-25T04:06:48;8.00;99.90
5697;DHT22;2873;50.966;7.210;2024-03-25T04:09:14;8.10;99.90
5697;DHT22;2873;50.966;7.210;2024-03-25T04:11:40;8.00;99.90
5697;DHT22;2873;50.966;7.210;2024-03-25T04:14:05;8.00;99.90
5697;DHT22;2873;50.966;7.210;2024-03-25T04:16:31;8.00;99.90
5697;DHT22;2873;50.966;7.210;2024-03-25T04:18:57;8.00;99.90
5697;DHT22;2873;50.966;7.210;2024-03-25T04:21:23;8.10;99.90
5697;DHT22;2873;50.966;7.210;2024-03-25T04:23:49;8.00;99.90
5697;DHT22;2873;50.966;7.210;2024-03-25T04:26:15;8.00;99.90
5697;DHT22;2873;50.966;7.210;2024-03-25T04:28:40;7.90;99.90
5697;DHT22;2873;50.966;7.210;2024-03-25T04:31:07;7.90;99.90
5697;DHT22;2873;50.966;7.210;2024-03-25T04:33:33;7.90;99.90
5697;DHT22;2873;50.966;7.210;2024-03-25T04:35:59;7.90;99.90
5697;DHT22;2873;50.966;7.210;2024-03-25T04:38:25;7.90;99.90
5697;DHT22;2873;50.966;7.210;2024-03-25T04:40:50;8.00;99.90
5697;DHT22;2873;50.966;7.210;2024-03-25T04:43:16;8.00;99.90
5697;DHT22;2873;50.966;7.210;2024-03-25T04:45:42;8.00;99.90
5697;DHT22;2873;50.966;7.210;2024-03-25T04:48:08;8.00;99.90
5697;DHT22;2873;50.966;7.210;2024-03-25T04:50:33;8.00;99.90
5697;DHT22;2873;50.966;7.210;2024-03-25T04:52:59;7.90;99.90
5697;DHT22;2873;50.966;7.210;2024-03-25T04:55:25;7.90;99.90
5697;DHT22;2873;50.966;7.210;2024-03-25T04:57:50;7.90;99.90
5697;DHT22;2873;50.966;7.210;2024-03-25T05:00:16;7.90;99.90
5697;DHT22;2873;50.966;7.210;2024-03-25T05:02:42;7.90;99.90
5697;DHT22;2873;50.966;7.210;2024-03-25T05:05:08;7.90;99.90
5697;DHT22;2873;50.966;7.210;2024-03-25T05:07:34;7.90;99.90
5697;DHT22;2873;50.966;7.210;2024-03-25T05:09:59;7.80;99.90
5697;DHT22;2873;50.966;7.210;2024-03-25T05:12:25;7.80;99.90
5697;DHT22;2873;50.966;7.210;2024-03-25T05:14:55;7.80;99.90
5697;DHT22;2873;50.966;7.210;2024-03-25T05:17:21;7.70;99.90
5697;DHT22;2873;50.966;7.210;2024-03-25T05:19:46;7.80;99.90
5697;DHT22;2873;50.966;7.210;2024-03-25T05:22:12;7.80;99.90
5697;DHT22;2873;50.966;7.210;2024-03-25T05:24:38;7.70;99.90
5697;DHT22;2873;50.966;7.210;2024-03-25T05:27:03;7.50;99.90
5697;DHT22;2873;50.966;7.210;2024-03-25T05:29:29;7.40;99.90
5697;DHT22;2873;50.966;7.210;2024-03-25T05:31:59;7.50;99.90
5697;DHT22;2873;50.966;7.210;2024-03-25T05:34:26;7.50;99.90
5697;DHT22;2873;50.966;7.210;2024-03-25T05:36:52;7.50;99.90
5697;DHT22;2873;50.966;7.210;2024-03-25T05:39:18;7.50;99.90
5697;DHT22;2873;50.966;7.210;2024-03-25T05:41:44;7.50;99.90
5697;DHT22;2873;50.966;7.210;2024-03-25T05:44:09;7.50;99.90
5697;DHT22;2873;50.966;7.210;2024-03-25T05:46:35;7.40;99.90
5697;DHT22;2873;50.966;7.210;2024-03-25T05:49:02;7.40;99.90
5697;DHT22;2873;50.966;7.210;2024-03-25T05:51:28;7.40;99.90
5697;DHT22;2873;50.966;7.210;2024-03-25T05:53:53;7.20;99.90
5697;DHT22;2873;50.966;7.210;2024-03-25T05:56:19;7.20;99.90
5697;DHT22;2873;50.966;7.210;2024-03-25T05:58:44;7.10;99.90
5697;DHT22;2873;50.966;7.210;2024-03-25T06:01:10;7.30;99.90
5697;DHT22;2873;50.966;7.210;2024-03-25T06:03:35;7.30;99.90
5697;DHT22;2873;50.966;7.210;2024-03-25T06:06:01;7.30;99.90
5697;DHT22;2873;50.966;7.210;2024-03-25T06:08:26;7.30;99.90
5697;DHT22;2873;50.966;7.210;2024-03-25T06:11:00;7.30;99.90
5697;DHT22;2873;50.966;7.210;2024-03-25T06:13:26;7.20;99.90
5697;DHT22;2873;50.966;7.210;2024-03-25T06:15:52;7.20;99.90
5697;DHT22;2873;50.966;7.210;2024-03-25T06:18:17;7.30;99.90
5697;DHT22;2873;50.966;7.210;2024-03-25T06:20:43;7.30;99.90
5697;DHT22;2873;50.966;7.210;2024-03-25T06:23:08;7.40;99.90
5697;DHT22;2873;50.966;7.210;2024-03-25T06:25:34;7.40;99.90
5697;DHT22;2873;50.966;7.210;2024-03-25T06:28:01;7.40;99.90
5697;DHT22;2873;50.966;7.210;2024-03-25T06:30:29;7.40;99.90
5697;DHT22;2873;50.966;7.210;2024-03-25T06:33:13;7.30;99.90
5697;DHT22;2873;50.966;7.210;2024-03-25T06:35:57;7.40;99.90
5697;DHT22;2873;50.966;7.210;2024-03-25T06:38:23;7.50;99.90
5697;DHT22;2873;50.966;7.210;2024-03-25T06:40:49;7.40;99.90
5697;DHT22;2873;50.966;7.210;2024-03-25T06:43:16;7.30;99.90
5697;DHT22;2873;50.966;7.210;2024-03-25T06:45:44;7.30;99.90
5697;DHT22;2873;50.966;7.210;2024-03-25T06:48:09;7.30;99.90
5697;DHT22;2873;50.966;7.210;2024-03-25T06:50:35;7.30;99.90
5697;DHT22;2873;50.966;7.210;2024-03-25T06:53:02;7.30;99.90
5697;DHT22;2873;50.966;7.210;2024-03-25T06:55:27;7.30;99.90
5697;DHT22;2873;50.966;7.210;2024-03-25T06:57:53;7.30;99.90
5697;DHT22;2873;50.966;7.210;2024-03-25T07:00:19;7.30;99.90
5697;DHT22;2873;50.966;7.210;2024-03-25T07:02:48;7.30;99.90
5697;DHT22;2873;50.966;7.210;2024-03-25T07:05:13;7.40;99.90
5697;DHT22;2873;50.966;7.210;2024-03-25T07:07:39;7.40;99.90
5697;DHT22;2873;50.966;7.210;2024-03-25T07:10:05;7.50;99.90
5697;DHT22;2873;50.966;7.210;2024-03-25T07:12:30;7.50;99.90
5697;DHT22;2873;50.966;7.210;2024-03-25T07:14:56;7.50;99.90
5697;DHT22;2873;50.966;7.210;2024-03-25T07:17:21;7.50;99.90
5697;DHT22;2873;50.966;7.210;2024-03-25T07:19:47;7.60;99.90
5697;DHT22;2873;50.966;7.210;2024-03-25T07:22:13;7.60;99.90
5697;DHT22;2873;50.966;7.210;2024-03-25T07:24:39;7.40;99.90
5697;DHT22;2873;50.966;7.210;2024-03-25T07:27:05;7.50;99.90
5697;DHT22;2873;50.966;7.210;2024-03-25T07:29:31;7.60;99.90
5697;DHT22;2873;50.966;7.210;2024-03-25T07:31:56;7.60;99.90
5697;DHT22;2873;50.966;7.210;2024-03-25T07:34:22;7.60;99.90
5697;DHT22;2873;50.966;7.210;2024-03-25T07:36:47;7.70;99.90
5697;DHT22;2873;50.966;7.210;2024-03-25T07:39:14;7.80;99.90
5697;DHT22;2873;50.966;7.210;2024-03-25T07:41:40;7.60;99.90
5697;DHT22;2873;50.966;7.210;2024-03-25T07:44:05;7.70;99.90
5697;DHT22;2873;50.966;7.210;2024-03-25T07:46:31;7.70;99.90
5697;DHT22;2873;50.966;7.210;2024-03-25T07:48:57;7.60;99.90
5697;DHT22;2873;50.966;7.210;2024-03-25T07:51:23;7.70;99.90
5697;DHT22;2873;50.966;7.210;2024-03-25T07:53:48;7.80;99.90
5697;DHT22;2873;50.966;7.210;2024-03-25T07:56:15;7.90;99.90
5697;DHT22;2873;50.966;7.210;2024-03-25T07:58:41;7.90;99.90
5697;DHT22;2873;50.966;7.210;2024-03-25T08:01:06;7.90;99.90
5697;DHT22;2873;50.966;7.210;2024-03-25T08:03:32;7.90;99.90
5697;DHT22;2873;50.966;7.210;2024-03-25T08:05:59;8.00;99.90
5697;DHT22;2873;50.966;7.210;2024-03-25T08:08:24;8.00;99.90
5697;DHT22;2873;50.966;7.210;2024-03-25T08:10:50;8.10;99.90
5697;DHT22;2873;50.966;7.210;2024-03-25T08:13:18;8.00;99.90
5697;DHT22;2873;50.966;7.210;2024-03-25T08:15:45;8.10;99.90
5697;DHT22;2873;50.966;7.210;2024-03-25T08:18:10;8.30;99.90
5697;DHT22;2873;50.966;7.210;2024-03-25T08:20:36;8.30;99.90
5697;DHT22;2873;50.966;7.210;2024-03-25T08:23:01;8.20;99.90
5697;DHT22;2873;50.966;7.210;2024-03-25T08:25:27;8.50;99.90
5697;DHT22;2873;50.966;7.210;2024-03-25T08:27:53;8.60;99.90
5697;DHT22;2873;50.966;7.210;2024-03-25T08:30:18;8.70;99.90
5697;DHT22;2873;50.966;7.210;2024-03-25T08:32:44;8.60;99.90
5697;DHT22;2873;50.966;7.210;2024-03-25T08:35:09;8.80;99.90
5697;DHT22;2873;50.966;7.210;2024-03-25T08:37:35;8.90;99.90
5697;DHT22;2873;50.966;7.210;2024-03-25T08:40:00;8.90;99.90
5697;DHT22;2873;50.966;7.210;2024-03-25T08:42:26;9.00;99.90
5697;DHT22;2873;50.966;7.210;2024-03-25T08:44:51;9.10;99.90
5697;DHT22;2873;50.966;7.210;2024-03-25T08:47:17;9.10;99.90
5697;DHT22;2873;50.966;7.210;2024-03-25T08:49:42;9.20;99.90
5697;DHT22;2873;50.966;7.210;2024-03-25T08:52:08;9.40;99.90
5697;DHT22;2873;50.966;7.210;2024-03-25T08:54:34;9.40;99.90
5697;DHT22;2873;50.966;7.210;2024-03-25T08:57:00;9.40;99.90
5697;DHT22;2873;50.966;7.210;2024-03-25T08:59:25;9.60;99.90
5697;DHT22;2873;50.966;7.210;2024-03-25T09:01:51;9.70;99.90
5697;DHT22;2873;50.966;7.210;2024-03-25T09:04:16;9.80;99.90
5697;DHT22;2873;50.966;7.210;2024-03-25T09:06:42;9.90;99.90
5697;DHT22;2873;50.966;7.210;2024-03-25T09:09:07;9.80;99.90
5697;DHT22;2873;50.966;7.210;2024-03-25T09:11:51;9.80;99.90
5697;DHT22;2873;50.966;7.210;2024-03-25T09:14:17;9.90;99.90
5697;DHT22;2873;50.966;7.210;2024-03-25T09:16:43;9.90;99.90
5697;DHT22;2873;50.966;7.210;2024-03-25T09:19:08;10.00;99.90
5697;DHT22;2873;50.966;7.210;2024-03-25T09:21:34;10.00;99.90
5697;DHT22;2873;50.966;7.210;2024-03-25T09:24:00;10.00;99.90
5697;DHT22;2873;50.966;7.210;2024-03-25T09:26:25;9.90;99.90
5697;DHT22;2873;50.966;7.210;2024-03-25T09:28:52;10.00;99.90
5697;DHT22;2873;50.966;7.210;2024-03-25T09:31:17;10.00;99.90
5697;DHT22;2873;50.966;7.210;2024-03-25T09:33:43;10.20;99.90
5697;DHT22;2873;50.966;7.210;2024-03-25T09:36:08;10.30;99.90
5697;DHT22;2873;50.966;7.210;2024-03-25T09:38:34;10.50;99.90
5697;DHT22;2873;50.966;7.210;2024-03-25T09:41:00;10.60;99.90
5697;DHT22;2873;50.966;7.210;2024-03-25T09:43:33;10.50;99.90
5697;DHT22;2873;50.966;7.210;2024-03-25T09:46:02;10.40;99.90
5697;DHT22;2873;50.966;7.210;2024-03-25T09:48:30;10.20;99.90
5697;DHT22;2873;50.966;7.210;2024-03-25T09:50:55;10.10;99.90
5697;DHT22;2873;50.966;7.210;2024-03-25T09:53:21;10.40;99.90
5697;DHT22;2873;50.966;7.210;2024-03-25T09:55:47;10.50;99.90
5697;DHT22;2873;50.966;7.210;2024-03-25T09:58:14;10.50;99.90
5697;DHT22;2873;50.966;7.210;2024-03-25T10:00:40;10.60;99.90
5697;DHT22;2873;50.966;7.210;2024-03-25T10:03:06;10.70;99.90
5697;DHT22;2873;50.966;7.210;2024-03-25T10:05:32;10.70;99.90
5697;DHT22;2873;50.966;7.210;2024-03-25T10:07:58;10.80;99.90
5697;DHT22;2873;50.966;7.210;2024-03-25T10:10:24;10.90;99.90
5697;DHT22;2873;50.966;7.210;2024-03-25T10:12:49;11.00;99.90
5697;DHT22;2873;50.966;7.210;2024-03-25T10:15:18;11.10;99.90
5697;DHT22;2873;50.966;7.210;2024-03-25T10:17:44;11.10;99.90
5697;DHT22;2873;50.966;7.210;2024-03-25T10:20:16;11.40;99.90
5697;DHT22;2873;50.966;7.210;2024-03-25T10:22:45;12.00;99.90
5697;DHT22;2873;50.966;7.210;2024-03-25T10:25:26;12.50;99.90
5697;DHT22;2873;50.966;7.210;2024-03-25T10:28:00;12.80;99.90
5697;DHT22;2873;50.966;7.210;2024-03-25T10:30:26;13.20;99.90
5697;DHT22;2873;50.966;7.210;2024-03-25T10:33:05;13.40;99.90
5697;DHT22;2873;50.966;7.210;2024-03-25T10:35:33;13.40;99.90
5697;DHT22;2873;50.966;7.210;2024-03-25T10:38:00;13.40;99.90
5697;DHT22;2873;50.966;7.210;2024-03-25T10:40:30;13.30;99.90
5697;DHT22;2873;50.966;7.210;2024-03-25T10:43:07;13.30;99.90
5697;DHT22;2873;50.966;7.210;2024-03-25T10:45:47;13.10;99.90
5697;DHT22;2873;50.966;7.210;2024-03-25T10:48:28;13.20;99.90
5697;DHT22;2873;50.966;7.210;2024-03-25T10:50:55;13.10;99.90
5697;DHT22;2873;50.966;7.210;2024-03-25T10:53:22;13.10;99.90
5697;DHT22;2873;50.966;7.210;2024-03-25T10:55:54;13.10;99.90
5697;DHT22;2873;50.966;7.210;2024-03-25T10:58:21;13.30;99.90
5697;DHT22;2873;50.966;7.210;2024-03-25T11:00:48;13.10;99.90
5697;DHT22;2873;50.966;7.210;2024-03-25T11:03:14;13.20;99.90
5697;DHT22;2873;50.966;7.210;2024-03-25T11:05:40;13.40;99.90
5697;DHT22;2873;50.966;7.210;2024-03-25T11:08:16;14.30;99.90
5697;DHT22;2873;50.966;7.210;2024-03-25T11:10:46;14.90;99.90
5697;DHT22;2873;50.966;7.210;2024-03-25T11:13:18;15.60;99.90
5697;DHT22;2873;50.966;7.210;2024-03-25T11:15:47;16.20;99.90
5697;DHT22;2873;50.966;7.210;2024-03-25T11:18:13;17.20;99.90
5697;DHT22;2873;50.966;7.210;2024-03-25T11:20:39;17.90;99.90
5697;DHT22;2873;50.966;7.210;2024-03-25T11:23:13;18.50;99.90
5697;DHT22;2873;50.966;7.210;2024-03-25T11:25:39;19.00;99.90
5697;DHT22;2873;50.966;7.210;2024-03-25T11:28:05;19.80;99.90
5697;DHT22;2873;50.966;7.210;2024-03-25T11:30:32;20.60;99.90
5697;DHT22;2873;50.966;7.210;2024-03-25T11:33:02;21.10;99.90
5697;DHT22;2873;50.966;7.210;2024-03-25T11:35:28;21.10;99.90
5697;DHT22;2873;50.966;7.210;2024-03-25T11:37:54;21.50;99.90
5697;DHT22;2873;50.966;7.210;2024-03-25T11:40:20;20.60;99.90
5697;DHT22;2873;50.966;7.210;2024-03-25T11:42:46;20.80;99.70
5697;DHT22;2873;50.966;7.210;2024-03-25T11:45:16;20.60;99.90
5697;DHT22;2873;50.966;7.210;2024-03-25T11:47:43;20.90;98.90
5697;DHT22;2873;50.966;7.210;2024-03-25T11:50:11;21.10;99.60
5697;DHT22;2873;50.966;7.210;2024-03-25T11:52:36;21.60;97.60
5697;DHT22;2873;50.966;7.210;2024-03-25T11:55:03;21.60;97.60
5697;DHT22;2873;50.966;7.210;2024-03-25T11:57:29;22.60;98.20
5697;DHT22;2873;50.966;7.210;2024-03-25T11:59:55;22.30;96.00
5697;DHT22;2873;50.966;7.210;2024-03-25T12:02:20;22.20;94.80
5697;DHT22;2873;50.966;7.210;2024-03-25T12:04:47;21.20;94.20
5697;DHT22;2873;50.966;7.210;2024-03-25T12:07:14;21.70;94.60
5697;DHT22;2873;50.966;7.210;2024-03-25T12:09:40;22.50;97.10
5697;DHT22;2873;50.966;7.210;2024-03-25T12:12:25;22.20;94.90
5697;DHT22;2873;50.966;7.210;2024-03-25T12:14:51;23.30;97.00
5697;DHT22;2873;50.966;7.210;2024-03-25T12:17:18;24.10;95.50
5697;DHT22;2873;50.966;7.210;2024-03-25T12:19:44;24.50;93.10
5697;DHT22;2873;50.966;7.210;2024-03-25T12:22:10;24.60;90.00
5697;DHT22;2873;50.966;7.210;2024-03-25T12:24:37;23.90;85.10
5697;DHT22;2873;50.966;7.210;2024-03-25T12:27:04;22.90;82.40
5697;DHT22;2873;50.966;7.210;2024-03-25T12:29:30;22.50;85.10
5697;DHT22;2873;50.966;7.210;2024-03-25T12:31:57;22.00;85.40
5697;DHT22;2873;50.966;7.210;2024-03-25T12:34:24;21.80;85.10
5697;DHT22;2873;50.966;7.210;2024-03-25T12:36:50;21.00;86.40
5697;DHT22;2873;50.966;7.210;2024-03-25T12:39:17;20.70;86.10
5697;DHT22;2873;50.966;7.210;2024-03-25T12:41:42;19.70;86.20
5697;DHT22;2873;50.966;7.210;2024-03-25T12:44:09;20.00;88.00
5697;DHT22;2873;50.966;7.210;2024-03-25T12:46:34;20.90;88.20
5697;DHT22;2873;50.966;7.210;2024-03-25T12:49:00;21.40;90.30
5697;DHT22;2873;50.966;7.210;2024-03-25T12:51:26;21.70;90.00
5697;DHT22;2873;50.966;7.210;2024-03-25T12:53:51;21.30;88.00
5697;DHT22;2873;50.966;7.210;2024-03-25T12:56:17;21.40;86.90
5697;DHT22;2873;50.966;7.210;2024-03-25T12:58:42;22.20;90.00
5697;DHT22;2873;50.966;7.210;2024-03-25T13:01:08;22.80;90.90
5697;DHT22;2873;50.966;7.210;2024-03-25T13:03:34;23.40;90.90
5697;DHT22;2873;50.966;7.210;2024-03-25T13:05:59;24.10;89.60
5697;DHT22;2873;50.966;7.210;2024-03-25T13:08:25;24.80;87.60
5697;DHT22;2873;50.966;7.210;2024-03-25T13:10:51;24.80;84.40
5697;DHT22;2873;50.966;7.210;2024-03-25T13:13:16;24.70;84.50
5697;DHT22;2873;50.966;7.210;2024-03-25T13:15:42;22.60;79.70
5697;DHT22;2873;50.966;7.210;2024-03-25T13:18:09;22.30;80.10
5697;DHT22;2873;50.966;7.210;2024-03-25T13:20:34;22.40;80.60
5697;DHT22;2873;50.966;7.210;2024-03-25T13:23:00;22.80;81.90
5697;DHT22;2873;50.966;7.210;2024-03-25T13:25:26;22.90;80.70
5697;DHT22;2873;50.966;7.210;2024-03-25T13:27:54;22.40;79.90
5697;DHT22;2873;50.966;7.210;2024-03-25T13:30:20;22.50;79.10
5697;DHT22;2873;50.966;7.210;2024-03-25T13:32:45;22.40;80.30
5697;DHT22;2873;50.966;7.210;2024-03-25T13:35:11;22.40;80.50
5697;DHT22;2873;50.966;7.210;2024-03-25T13:37:36;22.70;80.80
5697;DHT22;2873;50.966;7.210;2024-03-25T13:40:02;22.30;79.20
5697;DHT22;2873;50.966;7.210;2024-03-25T13:42:31;23.20;80.50
5697;DHT22;2873;50.966;7.210;2024-03-25T13:44:56;22.60;79.10
5697;DHT22;2873;50.966;7.210;2024-03-25T13:47:22;22.70;80.00
5697;DHT22;2873;50.966;7.210;2024-03-25T13:49:48;22.80;77.90
5697;DHT22;2873;50.966;7.210;2024-03-25T13:52:13;22.60;78.10
5697;DHT22;2873;50.966;7.210;2024-03-25T13:54:38;23.10;78.20
5697;DHT22;2873;50.966;7.210;2024-03-25T13:57:04;23.30;78.20
5697;DHT22;2873;50.966;7.210;2024-03-25T13:59:29;23.90;78.70
5697;DHT22;2873;50.966;7.210;2024-03-25T14:01:55;24.50;80.30
5697;DHT22;2873;50.966;7.210;2024-03-25T14:04:21;24.70;80.30
5697;DHT22;2873;50.966;7.210;2024-03-25T14:06:46;24.70;78.30
5697;DHT22;2873;50.966;7.210;2024-03-25T14:09:27;24.30;79.30
5697;DHT22;2873;50.966;7.210;2024-03-25T14:11:53;24.50;78.30
5697;DHT22;2873;50.966;7.210;2024-03-25T14:14:19;25.20;79.80
5697;DHT22;2873;50.966;7.210;2024-03-25T14:16:44;25.40;79.70
5697;DHT22;2873;50.966;7.210;2024-03-25T14:19:10;25.70;79.50
5697;DHT22;2873;50.966;7.210;2024-03-25T14:21:35;25.50;77.40
5697;DHT22;2873;50.966;7.210;2024-03-25T14:24:01;25.30;75.80
5697;DHT22;2873;50.966;7.210;2024-03-25T14:26:27;25.10;77.00
5697;DHT22;2873;50.966;7.210;2024-03-25T14:28:53;24.40;73.30
5697;DHT22;2873;50.966;7.210;2024-03-25T14:31:19;24.40;73.40
5697;DHT22;2873;50.966;7.210;2024-03-25T14:33:44;24.50;72.80
5697;DHT22;2873;50.966;7.210;2024-03-25T14:36:10;24.50;71.50
5697;DHT22;2873;50.966;7.210;2024-03-25T14:38:35;24.70;71.40
5697;DHT22;2873;50.966;7.210;2024-03-25T14:41:01;24.50;72.10
5697;DHT22;2873;50.966;7.210;2024-03-25T14:43:26;24.70;71.80
5697;DHT22;2873;50.966;7.210;2024-03-25T14:45:52;24.80;71.70
5697;DHT22;2873;50.966;7.210;2024-03-25T14:48:18;25.40;72.50
5697;DHT22;2873;50.966;7.210;2024-03-25T14:50:43;25.30;71.70
5697;DHT22;2873;50.966;7.210;2024-03-25T14:53:09;25.10;70.90
5697;DHT22;2873;50.966;7.210;2024-03-25T14:55:34;25.70;71.50
5697;DHT22;2873;50.966;7.210;2024-03-25T14:58:00;26.60;72.80
5697;DHT22;2873;50.966;7.210;2024-03-25T15:00:25;27.40;70.00
5697;DHT22;2873;50.966;7.210;2024-03-25T15:02:51;28.10;69.90
5697;DHT22;2873;50.966;7.210;2024-03-25T15:05:17;29.70;70.10
5697;DHT22;2873;50.966;7.210;2024-03-25T15:07:43;31.20;69.70
5697;DHT22;2873;50.966;7.210;2024-03-25T15:10:09;31.80;67.50
5697;DHT22;2873;50.966;7.210;2024-03-25T15:12:35;32.20;65.40
5697;DHT22;2873;50.966;7.210;2024-03-25T15:15:04;32.30;63.70
5697;DHT22;2873;50.966;7.210;2024-03-25T15:17:32;32.30;63.30
5697;DHT22;2873;50.966;7.210;2024-03-25T15:19:58;31.50;62.90
5697;DHT22;2873;50.966;7.210;2024-03-25T15:22:23;28.50;62.40
5697;DHT22;2873;50.966;7.210;2024-03-25T15:24:49;26.90;64.80
5697;DHT22;2873;50.966;7.210;2024-03-25T15:27:14;25.20;66.50
5697;DHT22;2873;50.966;7.210;2024-03-25T15:29:40;24.30;67.60
5697;DHT22;2873;50.966;7.210;2024-03-25T15:32:05;23.60;68.10
5697;DHT22;2873;50.966;7.210;2024-03-25T15:34:31;23.60;69.10
5697;DHT22;2873;50.966;7.210;2024-03-25T15:36:56;23.20;68.30
5697;DHT22;2873;50.966;7.210;2024-03-25T15:39:22;23.90;68.20
5697;DHT22;2873;50.966;7.210;2024-03-25T15:41:48;24.90;65.60
5697;DHT22;2873;50.966;7.210;2024-03-25T15:44:15;24.30;66.70
5697;DHT22;2873;50.966;7.210;2024-03-25T15:46:43;23.50;67.80
5697;DHT22;2873;50.966;7.210;2024-03-25T15:49:09;23.00;69.40
5697;DHT22;2873;50.966;7.210;2024-03-25T15:51:35;22.40;69.70
5697;DHT22;2873;50.966;7.210;2024-03-25T15:54:00;21.90;69.60
5697;DHT22;2873;50.966;7.210;2024-03-25T15:56:26;21.50;70.30
5697;DHT22;2873;50.966;7.210;2024-03-25T15:58:51;20.60;69.60
5697;DHT22;2873;50.966;7.210;2024-03-25T16:01:20;20.70;71.40
5697;DHT22;2873;50.966;7.210;2024-03-25T16:03:45;20.70;71.60
5697;DHT22;2873;50.966;7.210;2024-03-25T16:06:11;20.50;71.80